AirNav   Air Wisconsin Up To $57,000 Bonus
 
 1066 users online  

II84 Hilakos Airport
Mount Vernon, Indiana, USA

GOING TO MOUNT VERNON?


FAA INFORMATION EFFECTIVE 07 NOVEMBER 2019

Location

FAA Identifier: II84
Lat/Long: 37-55-55.1500N 087-46-17.0800W
37-55.919167N 087-46.284667W
37.9319861,-87.7714111
(estimated)
Elevation: 381 ft. / 116 m (estimated)
Variation: 00W (1990)
From city: 7 miles E of MOUNT VERNON, IN
Time zone: UTC -6 (UTC -5 during Daylight Saving Time)
Zip code: 47620

Airport Operations

Airport use: Private use, PERSONAL USE.
Activation date: 12/1993
Control tower: no
ARTCC: INDIANAPOLIS CENTER
FSS: TERRE HAUTE FLIGHT SERVICE STATION
Attendance: UNATNDD
Segmented circle: no

Airport Communications

WX AWOS-3PT at EHR (8 nm SE): 118.85 (270-826-0511)
WX ASOS at EVV (13 nm NE): 120.2 (812-436-4681)
WX AWOS-3 at CUL (19 nm NW): 118.425 (618-382-3760)

Nearby radio navigation aids

VOR radial/distance  VOR name  Freq  Var
PXV at fieldPOCKET CITY VORTAC113.3003E
OWBr296/30.8OWENSBORO VOR/DME108.6004W
SAMr153/36.4SAMSVILLE VOR/DME116.6003E

Airport Services

Runway Information

Runway 9/27

Dimensions: 1400 x 40 ft. / 427 x 12 m
Surface: turf
RUNWAY 9  RUNWAY 27
Traffic pattern: leftleft

Airport Ownership and Management from official FAA records

Ownership: Privately-owned
Owner: WILLIAM HILAKOS
6700 S. DAVIS RD
MT. VERNON, IN 47620
Phone 812-449-3236
Manager: WILLIAM HILAKOS
6700 S. DAVIS RD
MT. VERNON, IN 47620
Phone 812-449-3236

Airport Operational Statistics

Aircraft based on the field: 1
Single engine airplanes: 1
    

Additional Remarks

FOR CD CTC EVANSVILLE APCH AT 812-436-4690, WHEN APCH CLSD CTC INDIANAPOLIS ARTCC AT 317-247-2411.

Instrument Procedures

There are no published instrument procedures at II84.

Some nearby airports with instrument procedures:

KEHR - Henderson City-County Airport (8 nm SE)
KEVV - Evansville Regional Airport (13 nm NE)
KCUL - Carmi Municipal Airport (19 nm NW)
KTWT - Sturgis Municipal Airport (25 nm S)
KOWB - Owensboro-Daviess County Regional Airport (31 nm E)
 
Loc | Ops | Rwys | IFR | FBO | Links
Com | Nav | Svcs | Stats | Notes
Area around II84 (Hilakos Airport)
 
Road maps at: MapQuest Bing Google
 
Aerial photo
No photo
 
Sectional chart

 
Airport distance calculator
Flying to Hilakos Airport? Find the distance to fly.

From to II84

Sunrise and sunset
Times for 12-Nov-2019
 Local
(UTC-6)
 Zulu
(UTC)
Morning civil twilight06:0212:02
Sunrise06:2912:29
Sunset16:4122:41
Evening civil twilight17:0923:09

Current date and time
Zulu (UTC)  12-Nov-2019 13:53:39
Local (UTC-6)  12-Nov-2019 07:53:39
 
METAR
KEHR 
9nm SE 
121256Z AUTO 32008KT 10SM CLR M11/M14 A3053 RMK AO2 SLP344 T11061139 FZRANO
KEVV 
14nm NE 
121254Z 32007KT 290V350 10SM CLR M11/M16 A3052 RMK AO2 SLP343 T11061156 $
KCUL 
19nm NW 
121335Z AUTO 31009KT 10SM CLR M11/M14 A3056 RMK AO2
TAF
KEVV 
14nm NE 
121127Z 1212/1312 33008G17KT P6SM SKC FM121700 34011G19KT P6SM SKC FM130000 VRB02KT P6SM SKC
NOTAMs
Click for the latest NOTAMs
NOTAMs are issued by the DoD/FAA and will open in a separate window not controlled by AirNav.

 

 
 

Would you like to see your business listed on this page?

 If your business provides an interesting product or service to pilots, flight crews, aircraft, or users of the Hilakos Airport, you should consider listing it here.  To start the listing process, click on the button below
 
Add a business
 

Other Pages about Hilakos Airport

Update a link
 
Copyright © AirNav, LLC. All rights reserved. Privacy Policy  Contact